sensor_id;sensor_type;location;lat;lon;timestamp;P1;durP1;ratioP1;P2;durP2;ratioP2
34317;SDS011;20582;52.196;20.952;2023-04-15T00:01:41;20.42;;;10.10;;
34317;SDS011;20582;52.196;20.952;2023-04-15T00:04:06;16.13;;;9.43;;
34317;SDS011;20582;52.196;20.952;2023-04-15T00:06:33;18.33;;;9.75;;
34317;SDS011;20582;52.196;20.952;2023-04-15T00:08:59;16.83;;;10.27;;
34317;SDS011;20582;52.196;20.952;2023-04-15T00:11:25;15.27;;;9.82;;
34317;SDS011;20582;52.196;20.952;2023-04-15T00:13:51;16.92;;;9.93;;
34317;SDS011;20582;52.196;20.952;2023-04-15T00:16:17;18.75;;;9.73;;
34317;SDS011;20582;52.196;20.952;2023-04-15T00:18:43;17.50;;;9.82;;
34317;SDS011;20582;52.196;20.952;2023-04-15T00:21:09;17.08;;;10.00;;
34317;SDS011;20582;52.196;20.952;2023-04-15T00:23:35;13.98;;;9.68;;
34317;SDS011;20582;52.196;20.952;2023-04-15T00:26:01;15.75;;;10.40;;
34317;SDS011;20582;52.196;20.952;2023-04-15T00:28:27;17.95;;;11.20;;
34317;SDS011;20582;52.196;20.952;2023-04-15T00:30:53;19.50;;;11.15;;
34317;SDS011;20582;52.196;20.952;2023-04-15T00:33:19;17.88;;;11.73;;
34317;SDS011;20582;52.196;20.952;2023-04-15T00:35:45;17.20;;;11.23;;
34317;SDS011;20582;52.196;20.952;2023-04-15T00:38:11;16.73;;;11.27;;
34317;SDS011;20582;52.196;20.952;2023-04-15T00:40:37;17.92;;;11.23;;
34317;SDS011;20582;52.196;20.952;2023-04-15T00:43:03;19.27;;;12.05;;
34317;SDS011;20582;52.196;20.952;2023-04-15T00:45:29;16.55;;;11.52;;
34317;SDS011;20582;52.196;20.952;2023-04-15T00:47:55;17.42;;;11.77;;
34317;SDS011;20582;52.196;20.952;2023-04-15T00:50:22;20.10;;;11.88;;
34317;SDS011;20582;52.196;20.952;2023-04-15T00:52:48;19.10;;;11.90;;
34317;SDS011;20582;52.196;20.952;2023-04-15T00:55:14;19.33;;;12.35;;
34317;SDS011;20582;52.196;20.952;2023-04-15T00:57:40;18.95;;;11.65;;
34317;SDS011;20582;52.196;20.952;2023-04-15T01:00:06;17.42;;;12.25;;
34317;SDS011;20582;52.196;20.952;2023-04-15T01:02:33;17.75;;;11.65;;
34317;SDS011;20582;52.196;20.952;2023-04-15T01:05:00;16.58;;;10.98;;
34317;SDS011;20582;52.196;20.952;2023-04-15T01:07:26;16.67;;;10.63;;
34317;SDS011;20582;52.196;20.952;2023-04-15T01:09:52;18.00;;;11.75;;
34317;SDS011;20582;52.196;20.952;2023-04-15T01:12:18;17.50;;;11.32;;
34317;SDS011;20582;52.196;20.952;2023-04-15T01:14:45;20.20;;;11.75;;
34317;SDS011;20582;52.196;20.952;2023-04-15T01:17:11;17.88;;;11.52;;
34317;SDS011;20582;52.196;20.952;2023-04-15T01:19:37;19.17;;;12.38;;
34317;SDS011;20582;52.196;20.952;2023-04-15T01:22:04;18.65;;;12.25;;
34317;SDS011;20582;52.196;20.952;2023-04-15T01:24:33;17.50;;;11.90;;
34317;SDS011;20582;52.196;20.952;2023-04-15T01:27:00;18.23;;;11.80;;
34317;SDS011;20582;52.196;20.952;2023-04-15T01:29:26;20.48;;;13.30;;
34317;SDS011;20582;52.196;20.952;2023-04-15T01:31:53;19.02;;;12.68;;
34317;SDS011;20582;52.196;20.952;2023-04-15T01:34:19;18.90;;;12.18;;
34317;SDS011;20582;52.196;20.952;2023-04-15T01:36:46;21.38;;;14.45;;
34317;SDS011;20582;52.196;20.952;2023-04-15T01:39:12;23.80;;;15.18;;
34317;SDS011;20582;52.196;20.952;2023-04-15T01:41:38;23.25;;;15.85;;
34317;SDS011;20582;52.196;20.952;2023-04-15T01:44:06;25.85;;;15.57;;
34317;SDS011;20582;52.196;20.952;2023-04-15T01:46:32;21.98;;;14.40;;
34317;SDS011;20582;52.196;20.952;2023-04-15T01:48:58;23.88;;;15.90;;
34317;SDS011;20582;52.196;20.952;2023-04-15T01:51:24;22.38;;;15.57;;
34317;SDS011;20582;52.196;20.952;2023-04-15T01:53:50;24.40;;;15.63;;
34317;SDS011;20582;52.196;20.952;2023-04-15T01:56:16;27.30;;;16.48;;
34317;SDS011;20582;52.196;20.952;2023-04-15T01:58:42;26.65;;;16.08;;
34317;SDS011;20582;52.196;20.952;2023-04-15T02:01:09;25.88;;;16.95;;
34317;SDS011;20582;52.196;20.952;2023-04-15T02:03:35;26.48;;;17.48;;
34317;SDS011;20582;52.196;20.952;2023-04-15T02:06:01;26.20;;;16.58;;
34317;SDS011;20582;52.196;20.952;2023-04-15T02:08:28;29.02;;;18.38;;
34317;SDS011;20582;52.196;20.952;2023-04-15T02:10:54;25.40;;;16.77;;
34317;SDS011;20582;52.196;20.952;2023-04-15T02:13:20;27.10;;;17.40;;
34317;SDS011;20582;52.196;20.952;2023-04-15T02:15:47;30.25;;;19.02;;
34317;SDS011;20582;52.196;20.952;2023-04-15T02:18:14;26.92;;;17.92;;
34317;SDS011;20582;52.196;20.952;2023-04-15T02:20:40;28.00;;;17.92;;
34317;SDS011;20582;52.196;20.952;2023-04-15T02:23:08;25.30;;;16.63;;
34317;SDS011;20582;52.196;20.952;2023-04-15T02:25:35;25.75;;;17.40;;
34317;SDS011;20582;52.196;20.952;2023-04-15T02:28:02;28.77;;;18.30;;
34317;SDS011;20582;52.196;20.952;2023-04-15T02:30:28;29.98;;;19.27;;
34317;SDS011;20582;52.196;20.952;2023-04-15T02:32:54;27.88;;;19.63;;
34317;SDS011;20582;52.196;20.952;2023-04-15T02:35:20;29.08;;;17.67;;
34317;SDS011;20582;52.196;20.952;2023-04-15T02:37:49;27.63;;;18.85;;
34317;SDS011;20582;52.196;20.952;2023-04-15T02:40:15;27.13;;;17.63;;
34317;SDS011;20582;52.196;20.952;2023-04-15T02:42:42;30.30;;;19.23;;
34317;SDS011;20582;52.196;20.952;2023-04-15T02:45:08;29.10;;;19.85;;
34317;SDS011;20582;52.196;20.952;2023-04-15T02:47:36;29.77;;;20.20;;
34317;SDS011;20582;52.196;20.952;2023-04-15T02:50:04;30.10;;;18.35;;
34317;SDS011;20582;52.196;20.952;2023-04-15T02:52:31;28.88;;;18.60;;
34317;SDS011;20582;52.196;20.952;2023-04-15T02:54:57;29.20;;;19.02;;
34317;SDS011;20582;52.196;20.952;2023-04-15T02:57:26;29.75;;;19.05;;
34317;SDS011;20582;52.196;20.952;2023-04-15T02:59:53;27.33;;;18.90;;
34317;SDS011;20582;52.196;20.952;2023-04-15T03:02:19;29.42;;;19.27;;
34317;SDS011;20582;52.196;20.952;2023-04-15T03:04:45;29.77;;;19.08;;
34317;SDS011;20582;52.196;20.952;2023-04-15T03:07:11;30.83;;;19.40;;
34317;SDS011;20582;52.196;20.952;2023-04-15T03:09:37;28.25;;;18.60;;
34317;SDS011;20582;52.196;20.952;2023-04-15T03:12:05;28.73;;;17.83;;
34317;SDS011;20582;52.196;20.952;2023-04-15T03:14:31;28.88;;;19.48;;
34317;SDS011;20582;52.196;20.952;2023-04-15T03:16:57;29.88;;;19.25;;
34317;SDS011;20582;52.196;20.952;2023-04-15T03:19:25;30.80;;;18.77;;
34317;SDS011;20582;52.196;20.952;2023-04-15T03:21:51;27.50;;;19.35;;
34317;SDS011;20582;52.196;20.952;2023-04-15T03:24:19;26.38;;;18.00;;
34317;SDS011;20582;52.196;20.952;2023-04-15T03:26:45;27.85;;;18.35;;
34317;SDS011;20582;52.196;20.952;2023-04-15T03:29:11;31.20;;;19.92;;
34317;SDS011;20582;52.196;20.952;2023-04-15T03:31:37;26.33;;;17.75;;
34317;SDS011;20582;52.196;20.952;2023-04-15T03:34:03;28.17;;;18.98;;
34317;SDS011;20582;52.196;20.952;2023-04-15T03:36:29;27.63;;;18.52;;
34317;SDS011;20582;52.196;20.952;2023-04-15T03:38:57;28.70;;;19.02;;
34317;SDS011;20582;52.196;20.952;2023-04-15T03:41:23;27.13;;;17.95;;
34317;SDS011;20582;52.196;20.952;2023-04-15T03:43:49;26.98;;;18.02;;
34317;SDS011;20582;52.196;20.952;2023-04-15T03:46:17;27.35;;;17.35;;
34317;SDS011;20582;52.196;20.952;2023-04-15T03:48:43;28.92;;;18.08;;
34317;SDS011;20582;52.196;20.952;2023-04-15T03:51:09;26.45;;;17.85;;
34317;SDS011;20582;52.196;20.952;2023-04-15T03:53:35;28.70;;;18.08;;
34317;SDS011;20582;52.196;20.952;2023-04-15T03:56:01;26.45;;;17.17;;
34317;SDS011;20582;52.196;20.952;2023-04-15T03:58:27;29.20;;;17.27;;
34317;SDS011;20582;52.196;20.952;2023-04-15T04:00:53;26.10;;;17.35;;
34317;SDS011;20582;52.196;20.952;2023-04-15T04:03:19;26.48;;;17.17;;
34317;SDS011;20582;52.196;20.952;2023-04-15T04:05:45;27.98;;;17.30;;
34317;SDS011;20582;52.196;20.952;2023-04-15T04:08:11;27.20;;;18.38;;
34317;SDS011;20582;52.196;20.952;2023-04-15T04:10:38;24.45;;;17.42;;
34317;SDS011;20582;52.196;20.952;2023-04-15T04:13:04;24.13;;;16.50;;
34317;SDS011;20582;52.196;20.952;2023-04-15T04:15:30;25.45;;;17.33;;
34317;SDS011;20582;52.196;20.952;2023-04-15T04:17:56;25.30;;;15.35;;
34317;SDS011;20582;52.196;20.952;2023-04-15T04:20:22;27.55;;;18.10;;
34317;SDS011;20582;52.196;20.952;2023-04-15T04:22:48;26.90;;;17.55;;
34317;SDS011;20582;52.196;20.952;2023-04-15T04:25:14;26.67;;;18.13;;
34317;SDS011;20582;52.196;20.952;2023-04-15T04:27:40;24.77;;;16.65;;
34317;SDS011;20582;52.196;20.952;2023-04-15T04:30:06;25.05;;;16.92;;
34317;SDS011;20582;52.196;20.952;2023-04-15T04:32:32;26.13;;;16.90;;
34317;SDS011;20582;52.196;20.952;2023-04-15T04:34:58;25.77;;;16.42;;
34317;SDS011;20582;52.196;20.952;2023-04-15T04:37:24;23.70;;;16.45;;
34317;SDS011;20582;52.196;20.952;2023-04-15T04:39:51;28.65;;;16.45;;
34317;SDS011;20582;52.196;20.952;2023-04-15T04:42:17;27.52;;;16.95;;
34317;SDS011;20582;52.196;20.952;2023-04-15T04:44:43;26.98;;;17.67;;
34317;SDS011;20582;52.196;20.952;2023-04-15T04:47:09;25.83;;;17.80;;
34317;SDS011;20582;52.196;20.952;2023-04-15T04:49:35;28.20;;;17.67;;
34317;SDS011;20582;52.196;20.952;2023-04-15T04:52:01;29.25;;;18.55;;
34317;SDS011;20582;52.196;20.952;2023-04-15T04:54:27;27.52;;;17.10;;
34317;SDS011;20582;52.196;20.952;2023-04-15T04:56:55;27.25;;;17.80;;
34317;SDS011;20582;52.196;20.952;2023-04-15T04:59:21;25.33;;;16.75;;
34317;SDS011;20582;52.196;20.952;2023-04-15T05:01:47;24.88;;;16.73;;
34317;SDS011;20582;52.196;20.952;2023-04-15T05:04:13;26.45;;;17.33;;
34317;SDS011;20582;52.196;20.952;2023-04-15T05:06:39;26.25;;;17.92;;
34317;SDS011;20582;52.196;20.952;2023-04-15T05:09:05;27.38;;;17.95;;
34317;SDS011;20582;52.196;20.952;2023-04-15T05:11:32;26.52;;;17.65;;
34317;SDS011;20582;52.196;20.952;2023-04-15T05:13:57;29.92;;;17.77;;
34317;SDS011;20582;52.196;20.952;2023-04-15T05:16:25;27.00;;;17.95;;
34317;SDS011;20582;52.196;20.952;2023-04-15T05:18:51;27.60;;;16.92;;
34317;SDS011;20582;52.196;20.952;2023-04-15T05:21:17;28.58;;;17.50;;
34317;SDS011;20582;52.196;20.952;2023-04-15T05:23:43;25.55;;;17.05;;
34317;SDS011;20582;52.196;20.952;2023-04-15T05:26:09;24.17;;;16.48;;
34317;SDS011;20582;52.196;20.952;2023-04-15T05:28:35;26.05;;;17.65;;
34317;SDS011;20582;52.196;20.952;2023-04-15T05:31:01;26.83;;;17.60;;
34317;SDS011;20582;52.196;20.952;2023-04-15T05:33:27;24.88;;;17.02;;
34317;SDS011;20582;52.196;20.952;2023-04-15T05:35:53;27.05;;;16.77;;
34317;SDS011;20582;52.196;20.952;2023-04-15T05:38:19;24.60;;;16.70;;
34317;SDS011;20582;52.196;20.952;2023-04-15T05:40:45;25.33;;;16.45;;
34317;SDS011;20582;52.196;20.952;2023-04-15T05:43:11;26.75;;;16.65;;
34317;SDS011;20582;52.196;20.952;2023-04-15T05:45:37;30.13;;;18.27;;
34317;SDS011;20582;52.196;20.952;2023-04-15T05:48:03;26.38;;;17.48;;
34317;SDS011;20582;52.196;20.952;2023-04-15T05:50:30;25.48;;;15.68;;
34317;SDS011;20582;52.196;20.952;2023-04-15T05:52:56;22.65;;;15.63;;
34317;SDS011;20582;52.196;20.952;2023-04-15T05:55:21;28.38;;;16.63;;
34317;SDS011;20582;52.196;20.952;2023-04-15T05:57:47;23.23;;;16.58;;
34317;SDS011;20582;52.196;20.952;2023-04-15T06:00:13;26.85;;;17.13;;
34317;SDS011;20582;52.196;20.952;2023-04-15T06:02:40;24.27;;;17.00;;
34317;SDS011;20582;52.196;20.952;2023-04-15T06:05:06;23.50;;;16.48;;
34317;SDS011;20582;52.196;20.952;2023-04-15T06:07:34;26.92;;;17.00;;
34317;SDS011;20582;52.196;20.952;2023-04-15T06:10:01;25.27;;;16.55;;
34317;SDS011;20582;52.196;20.952;2023-04-15T06:12:27;22.50;;;15.13;;
34317;SDS011;20582;52.196;20.952;2023-04-15T06:14:52;23.00;;;15.85;;
34317;SDS011;20582;52.196;20.952;2023-04-15T06:17:18;25.42;;;16.80;;
34317;SDS011;20582;52.196;20.952;2023-04-15T06:19:44;23.13;;;15.50;;
34317;SDS011;20582;52.196;20.952;2023-04-15T06:22:10;23.38;;;16.58;;
34317;SDS011;20582;52.196;20.952;2023-04-15T06:24:36;22.08;;;15.30;;
34317;SDS011;20582;52.196;20.952;2023-04-15T06:27:02;26.95;;;15.18;;
34317;SDS011;20582;52.196;20.952;2023-04-15T06:29:28;23.50;;;15.70;;
34317;SDS011;20582;52.196;20.952;2023-04-15T06:31:54;24.10;;;16.10;;
34317;SDS011;20582;52.196;20.952;2023-04-15T06:34:20;22.20;;;15.15;;
34317;SDS011;20582;52.196;20.952;2023-04-15T06:36:46;23.00;;;15.60;;
34317;SDS011;20582;52.196;20.952;2023-04-15T06:39:12;25.23;;;15.18;;
34317;SDS011;20582;52.196;20.952;2023-04-15T06:41:38;20.98;;;14.77;;
34317;SDS011;20582;52.196;20.952;2023-04-15T06:44:04;24.13;;;15.73;;
34317;SDS011;20582;52.196;20.952;2023-04-15T06:46:30;19.35;;;13.98;;
34317;SDS011;20582;52.196;20.952;2023-04-15T06:48:57;21.13;;;14.77;;
34317;SDS011;20582;52.196;20.952;2023-04-15T06:51:22;20.42;;;14.32;;
34317;SDS011;20582;52.196;20.952;2023-04-15T06:53:48;19.75;;;13.85;;
34317;SDS011;20582;52.196;20.952;2023-04-15T06:56:14;17.63;;;12.45;;
34317;SDS011;20582;52.196;20.952;2023-04-15T06:58:40;20.40;;;13.63;;
34317;SDS011;20582;52.196;20.952;2023-04-15T07:01:06;20.88;;;13.82;;
34317;SDS011;20582;52.196;20.952;2023-04-15T07:03:32;20.08;;;13.40;;
34317;SDS011;20582;52.196;20.952;2023-04-15T07:05:59;19.50;;;13.07;;
34317;SDS011;20582;52.196;20.952;2023-04-15T07:08:25;20.13;;;13.75;;
34317;SDS011;20582;52.196;20.952;2023-04-15T07:10:51;20.77;;;13.50;;
34317;SDS011;20582;52.196;20.952;2023-04-15T07:13:18;18.23;;;12.25;;
34317;SDS011;20582;52.196;20.952;2023-04-15T07:15:44;22.02;;;13.20;;
34317;SDS011;20582;52.196;20.952;2023-04-15T07:18:10;18.65;;;12.45;;
34317;SDS011;20582;52.196;20.952;2023-04-15T07:20:35;20.48;;;13.52;;
34317;SDS011;20582;52.196;20.952;2023-04-15T07:23:01;21.15;;;13.65;;
34317;SDS011;20582;52.196;20.952;2023-04-15T07:25:28;19.70;;;12.60;;
34317;SDS011;20582;52.196;20.952;2023-04-15T07:27:54;22.33;;;13.77;;
34317;SDS011;20582;52.196;20.952;2023-04-15T07:30:20;18.35;;;12.15;;
34317;SDS011;20582;52.196;20.952;2023-04-15T07:32:47;18.77;;;12.52;;
34317;SDS011;20582;52.196;20.952;2023-04-15T07:35:13;17.08;;;12.07;;
34317;SDS011;20582;52.196;20.952;2023-04-15T07:37:39;16.52;;;10.68;;
34317;SDS011;20582;52.196;20.952;2023-04-15T07:40:07;16.27;;;10.80;;
34317;SDS011;20582;52.196;20.952;2023-04-15T07:42:33;14.25;;;9.73;;
34317;SDS011;20582;52.196;20.952;2023-04-15T07:44:59;15.68;;;10.57;;
34317;SDS011;20582;52.196;20.952;2023-04-15T07:47:25;16.02;;;10.60;;
34317;SDS011;20582;52.196;20.952;2023-04-15T07:49:51;16.80;;;11.25;;
34317;SDS011;20582;52.196;20.952;2023-04-15T07:52:17;15.95;;;10.45;;
34317;SDS011;20582;52.196;20.952;2023-04-15T07:54:44;20.63;;;11.07;;
34317;SDS011;20582;52.196;20.952;2023-04-15T07:57:10;16.67;;;10.38;;
34317;SDS011;20582;52.196;20.952;2023-04-15T07:59:36;17.00;;;10.88;;
34317;SDS011;20582;52.196;20.952;2023-04-15T08:02:02;16.33;;;10.48;;
34317;SDS011;20582;52.196;20.952;2023-04-15T08:04:28;16.27;;;10.30;;
34317;SDS011;20582;52.196;20.952;2023-04-15T08:06:54;16.45;;;10.07;;
34317;SDS011;20582;52.196;20.952;2023-04-15T08:09:20;16.05;;;10.13;;
34317;SDS011;20582;52.196;20.952;2023-04-15T08:11:47;15.20;;;9.80;;
34317;SDS011;20582;52.196;20.952;2023-04-15T08:14:14;14.88;;;9.95;;
34317;SDS011;20582;52.196;20.952;2023-04-15T08:16:40;16.08;;;9.90;;
34317;SDS011;20582;52.196;20.952;2023-04-15T08:19:07;14.13;;;9.82;;
34317;SDS011;20582;52.196;20.952;2023-04-15T08:21:33;14.50;;;9.02;;
34317;SDS011;20582;52.196;20.952;2023-04-15T08:23:59;15.30;;;9.23;;
34317;SDS011;20582;52.196;20.952;2023-04-15T08:26:25;16.40;;;9.55;;
34317;SDS011;20582;52.196;20.952;2023-04-15T08:28:51;12.95;;;8.75;;
34317;SDS011;20582;52.196;20.952;2023-04-15T08:31:17;15.20;;;9.75;;
34317;SDS011;20582;52.196;20.952;2023-04-15T08:33:43;14.07;;;9.40;;
34317;SDS011;20582;52.196;20.952;2023-04-15T08:36:10;13.48;;;9.15;;
34317;SDS011;20582;52.196;20.952;2023-04-15T08:38:37;13.23;;;8.20;;
34317;SDS011;20582;52.196;20.952;2023-04-15T08:41:09;15.32;;;9.60;;
34317;SDS011;20582;52.196;20.952;2023-04-15T08:43:41;13.07;;;8.73;;
34317;SDS011;20582;52.196;20.952;2023-04-15T08:46:10;13.82;;;8.30;;
34317;SDS011;20582;52.196;20.952;2023-04-15T08:48:36;12.57;;;7.38;;
34317;SDS011;20582;52.196;20.952;2023-04-15T08:51:04;11.95;;;7.63;;
34317;SDS011;20582;52.196;20.952;2023-04-15T08:53:31;12.32;;;8.30;;
34317;SDS011;20582;52.196;20.952;2023-04-15T08:55:57;13.60;;;7.65;;
34317;SDS011;20582;52.196;20.952;2023-04-15T08:58:25;13.25;;;8.60;;
34317;SDS011;20582;52.196;20.952;2023-04-15T09:00:51;12.27;;;7.47;;
34317;SDS011;20582;52.196;20.952;2023-04-15T09:03:17;12.65;;;7.57;;
34317;SDS011;20582;52.196;20.952;2023-04-15T09:05:43;10.32;;;7.00;;
34317;SDS011;20582;52.196;20.952;2023-04-15T09:08:09;11.75;;;7.32;;
34317;SDS011;20582;52.196;20.952;2023-04-15T09:10:35;11.82;;;7.30;;
34317;SDS011;20582;52.196;20.952;2023-04-15T09:13:02;10.32;;;6.45;;
34317;SDS011;20582;52.196;20.952;2023-04-15T09:15:28;10.23;;;6.57;;
34317;SDS011;20582;52.196;20.952;2023-04-15T09:17:55;10.23;;;5.95;;
34317;SDS011;20582;52.196;20.952;2023-04-15T09:20:21;12.90;;;6.95;;
34317;SDS011;20582;52.196;20.952;2023-04-15T09:22:48;11.57;;;6.45;;
34317;SDS011;20582;52.196;20.952;2023-04-15T09:30:15;12.48;;;6.18;;
34317;SDS011;20582;52.196;20.952;2023-04-15T09:32:48;9.68;;;6.22;;
34317;SDS011;20582;52.196;20.952;2023-04-15T09:35:15;12.98;;;6.45;;
34317;SDS011;20582;52.196;20.952;2023-04-15T09:37:41;11.00;;;6.57;;
34317;SDS011;20582;52.196;20.952;2023-04-15T09:40:07;11.38;;;6.28;;
34317;SDS011;20582;52.196;20.952;2023-04-15T09:42:34;8.63;;;5.80;;
34317;SDS011;20582;52.196;20.952;2023-04-15T09:45:10;10.80;;;5.90;;
34317;SDS011;20582;52.196;20.952;2023-04-15T09:47:36;8.30;;;5.20;;
34317;SDS011;20582;52.196;20.952;2023-04-15T09:50:02;10.20;;;5.55;;
34317;SDS011;20582;52.196;20.952;2023-04-15T09:52:29;10.23;;;5.57;;
34317;SDS011;20582;52.196;20.952;2023-04-15T09:54:56;8.48;;;5.45;;
34317;SDS011;20582;52.196;20.952;2023-04-15T09:57:22;10.38;;;6.00;;
34317;SDS011;20582;52.196;20.952;2023-04-15T09:59:49;9.60;;;6.00;;
34317;SDS011;20582;52.196;20.952;2023-04-15T10:02:15;10.52;;;6.60;;
34317;SDS011;20582;52.196;20.952;2023-04-15T10:04:43;9.25;;;6.00;;
34317;SDS011;20582;52.196;20.952;2023-04-15T10:07:09;9.95;;;6.07;;
34317;SDS011;20582;52.196;20.952;2023-04-15T10:09:37;8.93;;;5.38;;
34317;SDS011;20582;52.196;20.952;2023-04-15T10:12:03;9.32;;;6.13;;
34317;SDS011;20582;52.196;20.952;2023-04-15T10:14:34;9.25;;;6.15;;
34317;SDS011;20582;52.196;20.952;2023-04-15T10:17:02;8.52;;;5.28;;
34317;SDS011;20582;52.196;20.952;2023-04-15T10:19:32;10.80;;;6.78;;
34317;SDS011;20582;52.196;20.952;2023-04-15T10:21:58;10.27;;;6.80;;
34317;SDS011;20582;52.196;20.952;2023-04-15T10:24:24;9.52;;;5.32;;
34317;SDS011;20582;52.196;20.952;2023-04-15T10:26:51;8.57;;;5.00;;
34317;SDS011;20582;52.196;20.952;2023-04-15T10:29:17;8.35;;;5.30;;
34317;SDS011;20582;52.196;20.952;2023-04-15T10:31:43;8.38;;;5.25;;
34317;SDS011;20582;52.196;20.952;2023-04-15T10:34:09;9.40;;;5.40;;
34317;SDS011;20582;52.196;20.952;2023-04-15T10:36:36;12.73;;;5.20;;
34317;SDS011;20582;52.196;20.952;2023-04-15T10:39:02;8.50;;;4.90;;
34317;SDS011;20582;52.196;20.952;2023-04-15T10:42:00;9.57;;;5.32;;
34317;SDS011;20582;52.196;20.952;2023-04-15T10:44:31;9.93;;;4.95;;
34317;SDS011;20582;52.196;20.952;2023-04-15T10:46:56;9.98;;;6.28;;
34317;SDS011;20582;52.196;20.952;2023-04-15T10:49:23;9.95;;;5.28;;
34317;SDS011;20582;52.196;20.952;2023-04-15T10:51:51;9.00;;;5.68;;
34317;SDS011;20582;52.196;20.952;2023-04-15T10:59:36;7.93;;;5.13;;
34317;SDS011;20582;52.196;20.952;2023-04-15T11:02:03;10.23;;;5.82;;
34317;SDS011;20582;52.196;20.952;2023-04-15T11:07:14;9.73;;;5.57;;
34317;SDS011;20582;52.196;20.952;2023-04-15T11:09:40;9.20;;;5.60;;
34317;SDS011;20582;52.196;20.952;2023-04-15T11:12:06;7.85;;;4.88;;
34317;SDS011;20582;52.196;20.952;2023-04-15T11:14:33;8.75;;;4.70;;
34317;SDS011;20582;52.196;20.952;2023-04-15T11:17:00;9.25;;;5.25;;
34317;SDS011;20582;52.196;20.952;2023-04-15T11:19:26;8.57;;;5.10;;
34317;SDS011;20582;52.196;20.952;2023-04-15T11:22:07;13.63;;;7.35;;
34317;SDS011;20582;52.196;20.952;2023-04-15T11:24:33;11.07;;;6.38;;
34317;SDS011;20582;52.196;20.952;2023-04-15T11:27:00;12.10;;;6.55;;
34317;SDS011;20582;52.196;20.952;2023-04-15T11:29:30;11.43;;;5.68;;
34317;SDS011;20582;52.196;20.952;2023-04-15T11:32:07;12.38;;;5.68;;
34317;SDS011;20582;52.196;20.952;2023-04-15T11:34:34;8.55;;;5.15;;
34317;SDS011;20582;52.196;20.952;2023-04-15T11:37:04;10.57;;;5.57;;
34317;SDS011;20582;52.196;20.952;2023-04-15T11:39:30;7.53;;;4.28;;
34317;SDS011;20582;52.196;20.952;2023-04-15T11:41:56;8.38;;;3.97;;
34317;SDS011;20582;52.196;20.952;2023-04-15T11:44:22;7.03;;;4.35;;
34317;SDS011;20582;52.196;20.952;2023-04-15T11:46:48;9.15;;;4.88;;
34317;SDS011;20582;52.196;20.952;2023-04-15T11:49:30;8.02;;;4.82;;
34317;SDS011;20582;52.196;20.952;2023-04-15T11:51:58;9.25;;;5.88;;
34317;SDS011;20582;52.196;20.952;2023-04-15T11:54:24;11.55;;;6.68;;
34317;SDS011;20582;52.196;20.952;2023-04-15T11:56:50;9.48;;;5.65;;
34317;SDS011;20582;52.196;20.952;2023-04-15T11:59:18;10.25;;;5.55;;
34317;SDS011;20582;52.196;20.952;2023-04-15T12:01:44;8.77;;;5.50;;
34317;SDS011;20582;52.196;20.952;2023-04-15T12:06:37;12.00;;;7.47;;
34317;SDS011;20582;52.196;20.952;2023-04-15T12:09:06;9.13;;;6.07;;
34317;SDS011;20582;52.196;20.952;2023-04-15T12:11:49;8.02;;;4.68;;
34317;SDS011;20582;52.196;20.952;2023-04-15T12:14:18;7.30;;;4.65;;
34317;SDS011;20582;52.196;20.952;2023-04-15T12:16:46;8.18;;;5.03;;
34317;SDS011;20582;52.196;20.952;2023-04-15T12:19:25;9.25;;;5.88;;
34317;SDS011;20582;52.196;20.952;2023-04-15T12:21:52;10.43;;;6.75;;
34317;SDS011;20582;52.196;20.952;2023-04-15T12:24:19;19.27;;;11.60;;
34317;SDS011;20582;52.196;20.952;2023-04-15T12:29:15;22.27;;;10.52;;
34317;SDS011;20582;52.196;20.952;2023-04-15T12:34:36;7.68;;;4.72;;
34317;SDS011;20582;52.196;20.952;2023-04-15T12:37:04;10.48;;;5.35;;
34317;SDS011;20582;52.196;20.952;2023-04-15T12:39:30;7.65;;;4.60;;
34317;SDS011;20582;52.196;20.952;2023-04-15T12:41:57;5.63;;;3.60;;
34317;SDS011;20582;52.196;20.952;2023-04-15T12:44:27;7.35;;;3.60;;
34317;SDS011;20582;52.196;20.952;2023-04-15T12:46:53;5.90;;;3.53;;
34317;SDS011;20582;52.196;20.952;2023-04-15T12:49:20;7.00;;;3.55;;
34317;SDS011;20582;52.196;20.952;2023-04-15T12:51:50;6.78;;;3.58;;
34317;SDS011;20582;52.196;20.952;2023-04-15T12:54:18;10.82;;;4.30;;
34317;SDS011;20582;52.196;20.952;2023-04-15T12:56:44;26.35;;;15.52;;
34317;SDS011;20582;52.196;20.952;2023-04-15T12:59:10;15.13;;;7.13;;
34317;SDS011;20582;52.196;20.952;2023-04-15T13:01:37;9.02;;;4.80;;
34317;SDS011;20582;52.196;20.952;2023-04-15T13:04:03;7.22;;;4.00;;
34317;SDS011;20582;52.196;20.952;2023-04-15T13:06:29;6.32;;;3.22;;
34317;SDS011;20582;52.196;20.952;2023-04-15T13:08:57;5.57;;;3.20;;
34317;SDS011;20582;52.196;20.952;2023-04-15T13:11:23;4.57;;;2.80;;
34317;SDS011;20582;52.196;20.952;2023-04-15T13:13:50;5.65;;;2.90;;
34317;SDS011;20582;52.196;20.952;2023-04-15T13:16:19;6.93;;;2.90;;
34317;SDS011;20582;52.196;20.952;2023-04-15T13:18:47;10.18;;;3.97;;
34317;SDS011;20582;52.196;20.952;2023-04-15T13:21:13;7.60;;;3.05;;
34317;SDS011;20582;52.196;20.952;2023-04-15T13:23:42;8.40;;;3.33;;
34317;SDS011;20582;52.196;20.952;2023-04-15T13:26:08;6.47;;;3.40;;
34317;SDS011;20582;52.196;20.952;2023-04-15T13:28:34;9.93;;;4.20;;
34317;SDS011;20582;52.196;20.952;2023-04-15T13:31:01;5.68;;;3.13;;
34317;SDS011;20582;52.196;20.952;2023-04-15T13:33:27;6.72;;;3.10;;
34317;SDS011;20582;52.196;20.952;2023-04-15T13:35:53;6.47;;;2.80;;
34317;SDS011;20582;52.196;20.952;2023-04-15T13:38:19;5.63;;;2.60;;
34317;SDS011;20582;52.196;20.952;2023-04-15T13:40:45;5.78;;;2.50;;
34317;SDS011;20582;52.196;20.952;2023-04-15T13:43:11;5.35;;;2.83;;
34317;SDS011;20582;52.196;20.952;2023-04-15T13:45:37;4.38;;;2.10;;
34317;SDS011;20582;52.196;20.952;2023-04-15T13:48:03;7.75;;;2.92;;
34317;SDS011;20582;52.196;20.952;2023-04-15T13:50:29;8.45;;;3.08;;
34317;SDS011;20582;52.196;20.952;2023-04-15T13:52:55;6.18;;;3.10;;
34317;SDS011;20582;52.196;20.952;2023-04-15T13:55:21;5.50;;;2.92;;
34317;SDS011;20582;52.196;20.952;2023-04-15T13:57:47;5.85;;;2.53;;
34317;SDS011;20582;52.196;20.952;2023-04-15T14:00:14;6.35;;;2.90;;
34317;SDS011;20582;52.196;20.952;2023-04-15T14:02:40;6.35;;;2.95;;
34317;SDS011;20582;52.196;20.952;2023-04-15T14:05:07;7.32;;;4.03;;
34317;SDS011;20582;52.196;20.952;2023-04-15T14:07:33;6.18;;;3.20;;
34317;SDS011;20582;52.196;20.952;2023-04-15T14:09:59;6.40;;;2.80;;
34317;SDS011;20582;52.196;20.952;2023-04-15T14:12:26;4.55;;;2.53;;
34317;SDS011;20582;52.196;20.952;2023-04-15T14:14:52;5.82;;;3.13;;
34317;SDS011;20582;52.196;20.952;2023-04-15T14:17:18;4.53;;;2.70;;
34317;SDS011;20582;52.196;20.952;2023-04-15T14:19:44;6.95;;;3.35;;
34317;SDS011;20582;52.196;20.952;2023-04-15T14:22:10;5.88;;;2.90;;
34317;SDS011;20582;52.196;20.952;2023-04-15T14:24:36;4.68;;;2.70;;
34317;SDS011;20582;52.196;20.952;2023-04-15T14:27:02;5.43;;;2.80;;
34317;SDS011;20582;52.196;20.952;2023-04-15T14:29:28;5.15;;;2.50;;
34317;SDS011;20582;52.196;20.952;2023-04-15T14:31:55;4.72;;;2.45;;
34317;SDS011;20582;52.196;20.952;2023-04-15T14:34:22;5.70;;;2.60;;
34317;SDS011;20582;52.196;20.952;2023-04-15T14:36:49;5.07;;;2.70;;